Time;durP1;ratioP1;P1;durP2;ratioP2;P2;SDS_P1;SDS_P2;PMS_P1;PMS_P2;Temp;Humidity;BMP_temperature;BMP_pressure;BME280_temperature;BME280_humidity;BME280_pressure;Samples;Min_cycle;Max_cycle;Signal;HPM_P1;HPM_P2
2023/07/21 00:02:21;;;;;;;2.40;1.43;;;;;;;14.40;80.13;100475.41;5027614;28;20237;-83
2023/07/21 00:04:48;;;;;;;1.20;1.10;;;;;;;14.41;80.33;100470.91;5030873;28;20229;-84
2023/07/21 00:07:14;;;;;;;1.67;1.20;;;;;;;14.40;80.35;100470.03;5026080;28;20202;-83
2023/07/21 00:09:42;;;;;;;1.70;1.20;;;;;;;14.40;80.24;100470.03;5029796;28;20216;-84
2023/07/21 00:12:09;;;;;;;1.73;1.30;;;;;;;14.41;80.76;100471.75;5022709;28;20222;-84
2023/07/21 00:14:37;;;;;;;2.57;1.40;;;;;;;14.43;80.68;100463.59;5029617;28;20692;-83
2023/07/21 00:17:05;;;;;;;2.37;1.30;;;;;;;14.45;81.02;100472.34;5029549;28;20202;-84
2023/07/21 00:19:31;;;;;;;3.47;1.47;;;;;;;14.46;80.85;100464.19;5027071;28;20214;-83
2023/07/21 00:21:58;;;;;;;2.83;1.50;;;;;;;14.48;81.03;100470.28;5031403;28;20234;-83
2023/07/21 00:24:25;;;;;;;3.23;1.70;;;;;;;14.47;81.25;100463.22;5032924;28;20260;-83
2023/07/21 00:27:23;;;;;;;2.10;1.20;;;;;;;14.49;81.13;100463.09;5027077;28;20207;-83
2023/07/21 00:29:50;;;;;;;1.83;1.57;;;;;;;14.49;80.95;100463.09;5016148;28;20254;-84
2023/07/21 00:32:18;;;;;;;1.60;1.50;;;;;;;14.48;81.33;100451.53;5032305;28;20225;-84
2023/07/21 00:34:44;;;;;;;2.90;1.80;;;;;;;14.50;81.45;100454.94;5031280;28;20210;-83
2023/07/21 00:37:12;;;;;;;1.47;1.33;;;;;;;14.50;81.06;100452.25;5026959;28;20210;-83
2023/07/21 00:39:39;;;;;;;2.60;1.77;;;;;;;14.51;81.51;100445.06;5035791;28;20646;-83
2023/07/21 00:42:09;;;;;;;4.70;1.70;;;;;;;14.49;81.42;100441.66;5037710;28;20237;-83
2023/07/21 00:44:36;;;;;;;2.10;1.60;;;;;;;14.51;81.65;100439.69;5031285;28;20225;-84
2023/07/21 00:47:04;;;;;;;5.30;1.93;;;;;;;14.51;81.71;100440.53;5027668;28;20656;-84
2023/07/21 00:49:33;;;;;;;2.67;1.73;;;;;;;14.54;81.91;100450.13;5028461;28;20226;-83
2023/07/21 00:52:00;;;;;;;3.00;1.80;;;;;;;14.56;81.55;100435.63;5025772;28;20597;-84
2023/07/21 00:54:27;;;;;;;1.93;1.40;;;;;;;14.54;80.82;100440.28;5035287;28;20198;-83
2023/07/21 00:56:56;;;;;;;3.27;1.70;;;;;;;14.57;81.04;100439.16;5034535;28;20590;-83
2023/07/21 00:59:24;;;;;;;4.10;1.67;;;;;;;14.57;80.67;100431.97;5029824;28;20234;-83
2023/07/21 01:01:51;;;;;;;2.93;1.37;;;;;;;14.59;80.89;100429.19;5028537;28;20323;-87
2023/07/21 01:04:24;;;;;;;2.03;1.43;;;;;;;14.59;80.41;100427.34;5035211;28;20218;-85
2023/07/21 01:06:51;;;;;;;2.33;1.80;;;;;;;14.60;80.29;100422.84;5032642;28;20297;-86
2023/07/21 01:09:19;;;;;;;2.10;1.70;;;;;;;14.60;80.65;100425.53;5033142;28;20572;-86
2023/07/21 01:11:45;;;;;;;1.67;1.50;;;;;;;14.62;80.84;100436.13;5033331;28;20215;-86
2023/07/21 01:14:12;;;;;;;2.27;1.43;;;;;;;14.64;80.75;100440.38;5032141;28;20202;-85
2023/07/21 01:16:43;;;;;;;1.97;1.70;;;;;;;14.67;80.57;100433.91;5032439;28;20210;-85
2023/07/21 01:19:14;;;;;;;1.47;1.37;;;;;;;14.68;80.90;100431.09;5027269;28;20198;-85
2023/07/21 01:21:48;;;;;;;1.90;1.50;;;;;;;14.71;80.51;100435.31;5028188;28;20852;-84
2023/07/21 01:24:22;;;;;;;1.30;1.20;;;;;;;14.72;80.58;100427.16;5030016;28;20211;-84
2023/07/21 01:26:51;;;;;;;2.13;1.30;;;;;;;14.75;80.29;100426.91;5031396;28;20198;-85
2023/07/21 01:29:19;;;;;;;3.00;2.00;;;;;;;14.76;79.79;100422.41;5032363;28;20202;-85
2023/07/21 01:31:49;;;;;;;2.77;1.57;;;;;;;14.78;79.98;100423.13;5032768;28;20207;-84
2023/07/21 01:34:18;;;;;;;1.50;1.40;;;;;;;14.74;79.83;100419.00;5029807;28;20203;-84
2023/07/21 01:36:45;;;;;;;3.10;1.70;;;;;;;14.71;80.03;100408.53;5030553;28;20222;-84
2023/07/21 01:39:13;;;;;;;1.77;1.40;;;;;;;14.70;80.53;100418.41;5029055;28;20203;-84
2023/07/21 01:41:40;;;;;;;2.67;1.90;;;;;;;14.69;80.89;100410.50;5030794;28;20245;-84
2023/07/21 01:44:08;;;;;;;2.23;1.43;;;;;;;14.70;80.94;100412.19;5027736;28;20230;-84
2023/07/21 01:46:35;;;;;;;2.20;1.50;;;;;;;14.69;80.58;100422.06;5031584;28;20230;-84
2023/07/21 01:49:02;;;;;;;2.27;1.30;;;;;;;14.66;81.01;100416.13;5032064;28;20240;-84
2023/07/21 01:51:30;;;;;;;2.50;1.30;;;;;;;14.66;81.13;100419.66;5032186;28;20209;-83
2023/07/21 01:54:00;;;;;;;1.70;1.40;;;;;;;14.67;81.11;100417.81;5023942;28;20222;-84
2023/07/21 01:56:32;;;;;;;2.07;1.40;;;;;;;14.65;80.73;100417.09;5027053;28;20579;-84
2023/07/21 01:59:03;;;;;;;2.73;1.70;;;;;;;14.64;80.65;100418.94;5023823;28;20201;-83
2023/07/21 02:01:33;;;;;;;2.10;1.40;;;;;;;14.62;80.75;100428.94;5029754;28;20207;-84
2023/07/21 02:03:59;;;;;;;2.33;1.57;;;;;;;14.61;81.31;100429.06;5030780;28;20230;-83
2023/07/21 02:06:27;;;;;;;2.20;1.40;;;;;;;14.60;81.48;100438.91;5031710;28;20202;-85
2023/07/21 02:08:53;;;;;;;1.97;1.77;;;;;;;14.61;82.67;100445.97;5035300;28;20208;-87
2023/07/21 02:11:20;;;;;;;2.50;1.83;;;;;;;14.62;82.72;100436.97;5031539;28;20206;-86
2023/07/21 02:13:47;;;;;;;2.60;1.67;;;;;;;14.61;83.33;100434.41;5038037;28;20593;-84
2023/07/21 02:16:13;;;;;;;2.33;1.60;;;;;;;14.61;83.70;100437.09;5034443;28;20213;-84
2023/07/21 02:18:43;;;;;;;3.50;1.60;;;;;;;14.62;84.36;100438.78;5030703;28;20210;-83
2023/07/21 02:21:09;;;;;;;2.53;1.87;;;;;;;14.63;84.54;100432.47;5031720;28;20199;-84
2023/07/21 02:23:36;;;;;;;1.70;1.60;;;;;;;14.63;84.77;100440.50;5036144;28;20710;-83
2023/07/21 02:26:02;;;;;;;2.70;1.63;;;;;;;14.64;84.58;100439.53;5031347;28;20694;-84
2023/07/21 02:28:29;;;;;;;3.20;1.87;;;;;;;14.65;85.01;100442.06;5032209;28;20206;-84
2023/07/21 02:31:02;;;;;;;2.00;1.80;;;;;;;14.68;85.55;100444.50;5031368;28;20579;-84
2023/07/21 02:33:28;;;;;;;2.23;1.83;;;;;;;14.70;85.95;100447.03;5031079;28;20703;-84
2023/07/21 02:35:56;;;;;;;3.30;1.80;;;;;;;14.68;86.00;100438.28;5029975;28;20214;-85
2023/07/21 02:38:23;;;;;;;3.13;2.10;;;;;;;14.69;86.80;100434.63;5023455;28;20216;-85
2023/07/21 02:40:49;;;;;;;2.70;1.70;;;;;;;14.69;86.94;100437.31;5025620;28;20203;-85
2023/07/21 02:43:17;;;;;;;3.73;2.23;;;;;;;14.66;87.75;100422.34;5028618;28;20222;-86
2023/07/21 02:45:49;;;;;;;4.93;2.20;;;;;;;14.70;88.32;100413.03;5029628;28;20210;-85
2023/07/21 02:48:16;;;;;;;2.13;1.93;;;;;;;14.73;89.07;100422.66;5031433;28;20199;-86
2023/07/21 02:50:42;;;;;;;3.63;2.20;;;;;;;14.74;89.32;100414.47;5024918;28;20214;-85
2023/07/21 02:53:10;;;;;;;2.07;1.77;;;;;;;14.75;89.49;100407.28;5028817;28;20225;-85
2023/07/21 02:55:37;;;;;;;2.77;2.10;;;;;;;14.72;89.15;100403.03;5024060;28;20676;-84
2023/07/21 02:58:04;;;;;;;3.13;1.73;;;;;;;14.68;89.21;100403.44;5027051;28;20228;-85
2023/07/21 03:00:30;;;;;;;2.60;2.03;;;;;;;14.63;89.21;100395.78;5030343;28;20206;-86
2023/07/21 03:02:57;;;;;;;2.73;2.00;;;;;;;14.59;89.00;100405.91;5028988;28;20245;-86
2023/07/21 03:05:23;;;;;;;3.30;2.20;;;;;;;14.56;90.11;100406.16;5030192;28;20214;-85
2023/07/21 03:07:50;;;;;;;2.90;2.23;;;;;;;14.56;90.74;100403.47;5028086;28;20210;-85
2023/07/21 03:10:18;;;;;;;2.70;1.80;;;;;;;14.57;91.57;100410.53;5030198;28;20584;-84
2023/07/21 03:12:44;;;;;;;2.83;2.20;;;;;;;14.59;91.95;100400.56;5028932;28;20230;-85
2023/07/21 03:15:10;;;;;;;2.60;2.30;;;;;;;14.61;92.26;100402.25;5029802;28;20212;-84
2023/07/21 03:17:37;;;;;;;3.27;1.60;;;;;;;14.59;92.42;100397.88;5028746;28;20218;-84
2023/07/21 03:20:10;;;;;;;3.10;1.97;;;;;;;14.55;92.16;100399.09;5026696;28;20211;-85
2023/07/21 03:22:37;;;;;;;4.77;2.00;;;;;;;14.52;92.18;100395.81;5033778;28;20253;-85
2023/07/21 03:25:06;;;;;;;3.80;2.20;;;;;;;14.49;92.50;100402.31;5032330;28;20209;-85
2023/07/21 03:27:34;;;;;;;6.00;4.83;;;;;;;14.47;92.62;100406.94;5023067;28;20210;-84
2023/07/21 03:30:03;;;;;;;3.40;2.20;;;;;;;14.47;93.19;100403.41;5025284;28;20207;-85
2023/07/21 03:32:29;;;;;;;2.60;2.00;;;;;;;14.44;93.51;100404.50;5030234;28;20308;-85
2023/07/21 03:34:57;;;;;;;2.60;2.10;;;;;;;14.43;93.12;100399.28;5027395;28;20229;-84
2023/07/21 03:37:23;;;;;;;3.93;2.27;;;;;;;14.40;93.56;100391.47;5029752;28;20206;-84
2023/07/21 03:39:50;;;;;;;2.30;2.00;;;;;;;14.38;93.29;100388.06;5035075;28;20217;-85
2023/07/21 03:42:16;;;;;;;3.10;2.07;;;;;;;14.34;93.68;100392.81;5024158;28;20218;-84
2023/07/21 03:44:47;;;;;;;2.50;2.03;;;;;;;14.32;93.82;100391.25;5027440;28;20245;-84
2023/07/21 03:47:15;;;;;;;2.43;2.00;;;;;;;14.30;93.77;100391.38;5027621;28;20685;-85
2023/07/21 03:49:42;;;;;;;6.27;2.30;;;;;;;14.27;94.43;100382.75;5024338;28;20214;-85
2023/07/21 03:52:08;;;;;;;3.17;2.20;;;;;;;14.24;94.37;100383.84;5023705;28;20222;-84
2023/07/21 03:54:35;;;;;;;2.73;2.00;;;;;;;14.20;94.41;100393.09;5030070;28;20202;-84
2023/07/21 03:57:01;;;;;;;3.10;2.17;;;;;;;14.18;94.66;100389.69;5026894;28;20206;-86
2023/07/21 03:59:29;;;;;;;3.13;2.00;;;;;;;14.14;94.16;100383.78;5023808;28;20206;-85
2023/07/21 04:01:57;;;;;;;3.63;2.13;;;;;;;14.09;94.41;100377.94;5020938;28;20235;-86
2023/07/21 04:04:23;;;;;;;4.00;2.20;;;;;;;14.05;94.23;100375.63;5028384;28;20594;-85
2023/07/21 04:06:50;;;;;;;3.17;2.20;;;;;;;13.99;94.58;100368.94;5021170;28;20217;-84
2023/07/21 04:09:16;;;;;;;3.67;2.17;;;;;;;13.98;94.87;100372.59;5027308;28;20198;-85
2023/07/21 04:11:43;;;;;;;3.10;2.33;;;;;;;13.95;95.33;100355.94;5028083;28;20206;-84
2023/07/21 04:14:10;;;;;;;3.03;2.40;;;;;;;13.94;95.46;100364.97;5034673;28;20199;-84
2023/07/21 04:16:36;;;;;;;3.53;2.33;;;;;;;13.94;95.49;100367.63;5029544;28;20281;-85
2023/07/21 04:19:04;;;;;;;4.23;2.00;;;;;;;13.95;96.45;100369.34;5030341;28;20256;-85
2023/07/21 04:21:31;;;;;;;2.70;2.20;;;;;;;13.96;96.27;100371.03;5024094;28;20209;-85
2023/07/21 04:23:57;;;;;;;2.97;2.67;;;;;;;13.98;96.51;100369.91;5029453;28;20226;-85
2023/07/21 04:26:24;;;;;;;2.90;2.57;;;;;;;13.98;96.74;100366.38;5029352;28;20580;-84
2023/07/21 04:28:50;;;;;;;2.87;2.57;;;;;;;13.99;96.67;100362.72;5028312;28;20587;-86
2023/07/21 04:31:22;;;;;;;5.53;3.13;;;;;;;13.98;96.69;100363.72;5026263;28;20202;-86
2023/07/21 04:33:49;;;;;;;3.47;2.97;;;;;;;13.99;96.98;100362.72;5029626;28;20261;-85
2023/07/21 04:36:17;;;;;;;2.83;2.60;;;;;;;14.00;97.03;100357.25;5025996;28;20233;-84
2023/07/21 04:38:43;;;;;;;3.13;2.47;;;;;;;14.01;97.15;100355.44;5029639;28;20201;-85
2023/07/21 04:41:12;;;;;;;4.40;2.63;;;;;;;14.01;97.19;100355.44;5028795;28;20208;-85
2023/07/21 04:43:39;;;;;;;3.47;2.90;;;;;;;14.00;97.46;100348.38;5029577;28;20238;-85
2023/07/21 04:46:05;;;;;;;3.70;2.60;;;;;;;14.01;97.21;100352.75;5026679;28;20207;-85
2023/07/21 04:48:32;;;;;;;3.67;2.43;;;;;;;14.01;97.59;100353.59;5033396;28;20207;-84
2023/07/21 04:50:58;;;;;;;3.87;2.77;;;;;;;14.04;97.68;100366.75;5025654;28;20206;-83
2023/07/21 04:53:26;;;;;;;3.87;2.60;;;;;;;14.07;98.17;100360.28;5031190;28;20700;-84
2023/07/21 04:55:56;;;;;;;3.90;2.80;;;;;;;14.11;98.75;100359.91;5030117;28;20233;-83
2023/07/21 04:58:22;;;;;;;3.20;2.43;;;;;;;14.15;98.73;100350.63;5033317;28;20648;-84
2023/07/21 05:00:49;;;;;;;3.53;2.53;;;;;;;14.17;98.99;100343.31;5030895;28;20581;-84
2023/07/21 05:03:15;;;;;;;5.13;3.10;;;;;;;14.22;98.92;100345.63;5027199;28;20218;-84
2023/07/21 05:05:43;;;;;;;4.83;3.00;;;;;;;14.24;99.21;100341.00;5028998;28;20210;-84
2023/07/21 05:08:09;;;;;;;3.87;2.83;;;;;;;14.27;98.88;100335.38;5028145;28;20194;-84
2023/07/21 05:10:37;;;;;;;4.80;2.47;;;;;;;14.30;98.83;100337.81;5027025;28;20209;-84
2023/07/21 05:13:05;;;;;;;5.00;2.77;;;;;;;14.33;98.82;100337.53;5033427;28;20230;-84
2023/07/21 05:15:35;;;;;;;5.77;3.27;;;;;;;14.36;98.67;100334.59;5027779;28;20264;-84
2023/07/21 05:18:01;;;;;;;3.30;2.50;;;;;;;14.37;98.20;100341.66;5028422;28;20203;-84
2023/07/21 05:20:27;;;;;;;6.73;2.73;;;;;;;14.40;97.68;100351.28;5027042;28;20679;-85
2023/07/21 05:22:54;;;;;;;6.47;2.90;;;;;;;14.41;97.79;100353.84;5028354;28;20222;-84
2023/07/21 05:25:20;;;;;;;6.40;3.50;;;;;;;14.45;97.58;100351.78;5024452;28;20229;-84
2023/07/21 05:27:49;;;;;;;4.80;2.90;;;;;;;14.48;97.08;100354.22;5032257;28;20211;-85
2023/07/21 05:30:16;;;;;;;5.17;3.27;;;;;;;14.47;97.14;100353.34;5027719;28;20213;-87
2023/07/21 05:32:42;;;;;;;5.00;2.67;;;;;;;14.50;97.36;100349.56;5023571;28;20222;-85
2023/07/21 05:35:10;;;;;;;8.37;3.00;;;;;;;14.51;96.82;100349.41;5031749;28;20202;-85
2023/07/21 05:37:37;;;;;;;8.20;3.13;;;;;;;14.54;96.93;100350.97;5030992;28;20256;-85
2023/07/21 05:40:05;;;;;;;4.93;3.20;;;;;;;14.54;96.71;100348.31;5025166;28;20250;-84
2023/07/21 05:42:32;;;;;;;3.67;2.97;;;;;;;14.57;96.73;100351.59;5030457;28;21559;-85
2023/07/21 05:45:00;;;;;;;3.27;2.73;;;;;;;14.59;96.48;100352.31;5021185;28;20260;-84
2023/07/21 05:47:26;;;;;;;4.57;3.40;;;;;;;14.62;96.30;100351.19;5031944;28;20206;-84
2023/07/21 05:49:56;;;;;;;4.90;2.60;;;;;;;14.66;96.63;100351.81;5029793;28;20210;-84
2023/07/21 05:52:23;;;;;;;4.60;2.70;;;;;;;14.68;96.59;100344.47;5031903;28;20225;-84
2023/07/21 05:54:49;;;;;;;3.13;2.80;;;;;;;14.74;96.59;100346.63;5031834;28;21162;-84
2023/07/21 05:57:16;;;;;;;3.07;2.77;;;;;;;14.78;96.82;100345.38;5031784;28;20221;-85
2023/07/21 05:59:43;;;;;;;5.47;2.80;;;;;;;14.82;96.06;100341.47;5033205;28;20595;-85
2023/07/21 06:02:10;;;;;;;3.00;2.70;;;;;;;14.85;96.42;100347.41;5026930;28;20345;-84
2023/07/21 06:04:37;;;;;;;5.00;2.83;;;;;;;14.88;96.10;100338.22;5030096;28;20609;-84
2023/07/21 06:07:04;;;;;;;3.17;2.50;;;;;;;14.91;95.86;100338.81;5030857;28;20218;-84
2023/07/21 06:09:30;;;;;;;3.23;2.20;;;;;;;14.97;95.18;100340.13;5027615;28;20202;-84
2023/07/21 06:11:57;;;;;;;4.90;2.27;;;;;;;15.03;95.31;100333.41;5031012;28;20227;-84
2023/07/21 06:14:23;;;;;;;5.77;2.43;;;;;;;15.08;95.02;100337.34;5033126;28;20201;-83
2023/07/21 06:16:49;;;;;;;3.10;2.07;;;;;;;15.16;94.59;100334.88;5031332;28;20214;-86
2023/07/21 06:19:17;;;;;;;3.07;2.40;;;;;;;15.21;94.26;100340.69;5025171;28;20195;-84
2023/07/21 06:21:44;;;;;;;2.23;1.97;;;;;;;15.25;93.63;100330.53;5031507;28;20221;-85
2023/07/21 06:24:10;;;;;;;2.50;2.27;;;;;;;15.31;93.31;100326.47;5025270;28;20235;-84
2023/07/21 06:26:38;;;;;;;2.73;2.07;;;;;;;15.38;92.79;100327.63;5031975;28;20214;-84
2023/07/21 06:29:05;;;;;;;3.77;2.07;;;;;;;15.42;92.06;100324.50;5029592;28;20213;-84
2023/07/21 06:31:31;;;;;;;2.77;2.00;;;;;;;15.46;91.09;100320.59;5031171;28;20213;-84
2023/07/21 06:33:58;;;;;;;4.10;2.00;;;;;;;15.51;91.17;100323.72;5029828;28;20229;-85
2023/07/21 06:36:26;;;;;;;4.10;1.90;;;;;;;15.56;90.90;100313.47;5030708;28;20202;-86
2023/07/21 06:38:52;;;;;;;2.53;1.80;;;;;;;15.63;90.77;100317.28;5023238;28;21394;-84
2023/07/21 06:41:20;;;;;;;3.07;1.73;;;;;;;15.68;90.77;100316.88;5031272;28;20575;-85
2023/07/21 06:43:46;;;;;;;2.20;2.00;;;;;;;15.74;90.31;100313.63;5026677;28;20227;-84
2023/07/21 06:46:12;;;;;;;5.27;2.00;;;;;;;15.80;90.00;100318.44;5030806;28;20222;-84
2023/07/21 06:48:39;;;;;;;3.57;1.80;;;;;;;15.88;89.68;100318.59;5027932;28;20203;-84
2023/07/21 06:51:05;;;;;;;3.50;1.90;;;;;;;15.94;89.09;100315.34;5030532;28;20212;-84
2023/07/21 06:53:33;;;;;;;2.67;1.73;;;;;;;16.02;88.55;100316.50;5026683;28;20611;-84
2023/07/21 06:56:00;;;;;;;3.73;1.77;;;;;;;16.09;88.11;100318.50;5031072;28;20217;-84
2023/07/21 06:58:26;;;;;;;1.97;1.73;;;;;;;16.17;87.64;100323.16;5030202;28;20204;-83
2023/07/21 07:00:53;;;;;;;2.27;1.60;;;;;;;16.23;86.83;100304.63;5030557;28;20214;-83
2023/07/21 07:03:20;;;;;;;3.10;1.70;;;;;;;16.31;86.14;100303.91;5026604;28;20236;-83
2023/07/21 07:05:47;;;;;;;2.63;2.40;;;;;;;16.40;85.82;100310.28;5028308;28;20229;-84
2023/07/21 07:08:14;;;;;;;2.77;1.80;;;;;;;16.48;85.70;100313.94;5030175;28;20615;-84
2023/07/21 07:10:42;;;;;;;3.00;1.90;;;;;;;16.59;85.97;100303.03;5035738;28;20238;-83
2023/07/21 07:13:08;;;;;;;2.10;1.70;;;;;;;16.73;85.04;100300.91;5030179;28;20239;-83
2023/07/21 07:15:35;;;;;;;2.50;1.90;;;;;;;16.82;84.03;100308.13;5030309;28;20215;-83
2023/07/21 07:18:02;;;;;;;2.83;2.00;;;;;;;16.89;83.17;100306.53;5028854;28;20620;-82
2023/07/21 07:20:28;;;;;;;2.53;1.90;;;;;;;16.98;82.49;100311.06;5023437;28;20206;-84
2023/07/21 07:22:55;;;;;;;2.40;1.87;;;;;;;17.06;82.20;100296.84;5027118;28;20241;-83
2023/07/21 07:25:24;;;;;;;2.93;1.90;;;;;;;17.20;82.45;100297.22;5023426;28;20691;-86
2023/07/21 07:27:52;;;;;;;2.63;1.90;;;;;;;17.37;82.19;100305.53;5035006;28;20663;-86
2023/07/21 07:30:20;;;;;;;2.40;1.80;;;;;;;17.52;81.11;100302.19;5022237;28;20204;-85
2023/07/21 07:32:47;;;;;;;1.83;1.60;;;;;;;17.68;79.45;100294.31;5029562;28;20223;-84
2023/07/21 07:35:13;;;;;;;1.50;1.40;;;;;;;17.82;79.03;100295.66;5029600;28;20729;-85
2023/07/21 07:37:40;;;;;;;1.73;1.50;;;;;;;17.96;76.46;100297.81;5031053;28;20209;-83
2023/07/21 07:40:08;;;;;;;1.40;1.30;;;;;;;18.09;75.01;100283.97;5023400;28;20205;-84
2023/07/21 07:42:35;;;;;;;1.80;1.13;;;;;;;18.24;73.71;100289.66;5031114;28;20240;-83
2023/07/21 07:45:03;;;;;;;1.37;1.20;;;;;;;18.36;72.40;100289.25;5030441;28;20246;-84
2023/07/21 07:47:29;;;;;;;1.63;1.43;;;;;;;18.51;70.40;100296.78;5030101;28;20607;-84
2023/07/21 07:49:56;;;;;;;1.60;1.40;;;;;;;18.63;70.31;100291.00;5024827;28;20206;-84
2023/07/21 07:52:22;;;;;;;1.70;1.30;;;;;;;18.80;69.83;100293.84;5031018;28;20240;-84
2023/07/21 07:54:49;;;;;;;1.40;1.30;;;;;;;18.97;69.44;100287.53;5030380;28;20220;-85
2023/07/21 07:57:15;;;;;;;2.17;1.40;;;;;;;19.16;68.16;100287.31;5036765;28;20286;-85
2023/07/21 07:59:42;;;;;;;1.53;1.20;;;;;;;19.29;65.97;100289.56;5030724;28;20209;-85
2023/07/21 08:02:10;;;;;;;1.90;1.70;;;;;;;19.41;64.85;100288.25;5026341;28;20230;-84
2023/07/21 08:04:36;;;;;;;1.90;1.47;;;;;;;19.49;64.17;100282.03;5030068;28;20249;-84
2023/07/21 08:07:03;;;;;;;1.30;1.20;;;;;;;19.59;64.77;100283.63;5030028;28;20290;-84
2023/07/21 08:09:29;;;;;;;1.43;1.33;;;;;;;19.75;64.58;100280.13;5034480;28;20209;-84
2023/07/21 08:11:57;;;;;;;2.37;1.50;;;;;;;19.88;63.31;100274.25;5037101;28;20273;-84
2023/07/21 08:14:24;;;;;;;2.30;1.50;;;;;;;20.02;62.45;100274.44;5037968;28;20578;-84
2023/07/21 08:16:50;;;;;;;1.87;1.50;;;;;;;20.19;62.31;100275.28;5034971;28;20222;-85
2023/07/21 08:19:18;;;;;;;1.70;1.48;;;;;;;20.33;61.14;100277.31;5033553;28;20213;-85
2023/07/21 08:21:47;;;;;;;1.95;1.50;;;;;;;20.51;60.77;100268.22;5030492;28;20219;-85
2023/07/21 08:24:14;;;;;;;2.13;1.30;;;;;;;20.69;60.54;100274.28;5040205;28;20238;-84
2023/07/21 08:26:41;;;;;;;2.10;1.65;;;;;;;20.86;58.70;100277.81;5034412;28;20623;-84
2023/07/21 08:29:09;;;;;;;1.63;1.50;;;;;;;20.98;58.15;100274.56;5030955;28;20209;-84
2023/07/21 08:31:35;;;;;;;2.03;1.70;;;;;;;21.14;56.69;100268.25;5030373;28;20677;-83
2023/07/21 08:34:02;;;;;;;1.40;1.30;;;;;;;21.31;57.32;100269.94;5026217;28;20214;-83
2023/07/21 08:36:29;;;;;;;2.50;1.30;;;;;;;21.45;56.35;100266.47;5032990;28;20213;-84
2023/07/21 08:38:56;;;;;;;1.42;1.33;;;;;;;21.59;54.80;100272.16;5033977;28;20209;-84
2023/07/21 08:41:23;;;;;;;1.45;1.35;;;;;;;21.64;52.83;100275.19;5029942;28;20206;-84
2023/07/21 08:43:50;;;;;;;1.52;1.42;;;;;;;21.68;53.73;100274.63;5031387;28;20246;-84
2023/07/21 08:46:17;;;;;;;1.70;1.20;;;;;;;21.80;53.51;100265.09;5034285;28;20505;-85
2023/07/21 08:48:44;;;;;;;1.52;1.33;;;;;;;21.90;52.86;100264.84;5036281;28;20220;-83
2023/07/21 08:51:11;;;;;;;1.33;1.20;;;;;;;21.97;52.97;100267.72;5030147;28;20213;-82
2023/07/21 08:53:39;;;;;;;1.50;1.40;;;;;;;22.06;52.98;100269.34;5029516;28;20236;-82
2023/07/21 08:56:06;;;;;;;1.98;1.45;;;;;;;22.19;52.52;100271.47;5032747;28;20206;-83
2023/07/21 08:58:32;;;;;;;1.58;1.27;;;;;;;22.34;52.19;100270.50;5033286;28;20228;-84
2023/07/21 09:00:59;;;;;;;1.95;1.55;;;;;;;22.48;50.64;100260.72;5034728;28;20204;-83
2023/07/21 09:03:26;;;;;;;1.85;1.75;;;;;;;22.61;50.45;100254.66;5032850;28;20222;-83
2023/07/21 09:05:55;;;;;;;2.58;2.30;;;;;;;22.68;49.66;100261.88;5036094;28;20228;-82
2023/07/21 09:08:23;;;;;;;1.88;1.70;;;;;;;22.76;49.73;100258.22;5032355;28;20206;-85
2023/07/21 09:10:51;;;;;;;2.50;1.77;;;;;;;22.87;49.54;100262.41;5033525;28;20668;-82
2023/07/21 09:13:19;;;;;;;1.90;1.70;;;;;;;22.94;48.75;100252.47;5036400;28;20235;-84
2023/07/21 09:15:53;;;;;;;4.55;2.15;;;;;;;22.99;48.23;100252.75;5033800;28;20225;-83
2023/07/21 09:18:25;;;;;;;1.88;1.70;;;;;;;23.10;48.30;100255.03;5033438;28;20213;-83
2023/07/21 09:20:52;;;;;;;2.22;1.85;;;;;;;23.20;48.20;100245.56;5035332;28;20662;-83
2023/07/21 09:23:19;;;;;;;2.08;1.88;;;;;;;23.28;47.91;100247.34;5033046;28;20230;-84
2023/07/21 09:25:51;;;;;;;2.58;1.63;;;;;;;23.38;47.40;100245.16;5028529;28;20228;-83
2023/07/21 09:28:18;;;;;;;1.70;1.60;;;;;;;23.48;47.55;100237.53;5025160;28;20197;-83
2023/07/21 09:30:52;;;;;;;2.22;1.40;;;;;;;23.53;47.37;100239.72;5030886;28;20213;-82
2023/07/21 09:33:23;;;;;;;2.22;1.50;;;;;;;23.53;47.36;100237.84;5030278;28;20225;-83
2023/07/21 09:35:50;;;;;;;2.97;1.63;;;;;;;23.53;47.24;100242.44;5032433;28;20276;-83
2023/07/21 09:38:17;;;;;;;1.73;1.40;;;;;;;23.51;47.64;100239.91;5030253;28;20663;-83
2023/07/21 09:40:43;;;;;;;1.75;1.65;;;;;;;23.54;47.88;100234.09;5032861;28;20665;-83
2023/07/21 09:43:11;;;;;;;1.67;1.58;;;;;;;23.52;47.93;100233.44;5027855;28;20686;-84
2023/07/21 09:45:38;;;;;;;2.83;1.60;;;;;;;23.52;48.27;100235.31;5030715;28;20226;-82
2023/07/21 09:48:05;;;;;;;2.10;1.90;;;;;;;23.48;47.98;100237.53;5033986;28;20229;-83
2023/07/21 09:50:32;;;;;;;1.85;1.52;;;;;;;23.47;48.31;100229.56;5032159;28;20253;-83
2023/07/21 09:52:58;;;;;;;1.45;1.35;;;;;;;23.51;48.08;100222.72;5030726;28;20226;-84
2023/07/21 09:55:32;;;;;;;2.53;1.67;;;;;;;23.62;47.61;100222.28;5031258;28;20206;-83
2023/07/21 09:58:03;;;;;;;1.30;1.20;;;;;;;23.74;47.48;100222.59;5033423;28;20217;-84
2023/07/21 10:00:34;;;;;;;1.70;1.60;;;;;;;23.83;46.43;100210.56;5030938;28;20596;-83
2023/07/21 10:03:04;;;;;;;1.92;1.70;;;;;;;23.86;44.98;100213.72;5023412;28;20233;-84
2023/07/21 10:05:31;;;;;;;1.83;1.52;;;;;;;23.82;45.53;100215.19;5030846;28;20605;-85
2023/07/21 10:08:03;;;;;;;4.72;1.63;;;;;;;23.80;45.09;100216.41;5032957;28;20288;-83
2023/07/21 10:10:46;;;;;;;;;;;;;;;;;;;;;
2023/07/21 10:13:34;;;;;;;1.70;1.60;;;;;;;23.92;46.04;100217.56;5033910;28;20226;-84
2023/07/21 10:16:09;;;;;;;1.48;1.38;;;;;;;23.97;45.48;100204.22;4911683;29;20209;-86
2023/07/21 10:18:36;;;;;;;1.88;1.50;;;;;;;24.02;45.28;100209.06;4991541;28;20205;-85
2023/07/21 10:21:05;;;;;;;1.30;1.20;;;;;;;24.07;44.74;100203.88;5034536;28;20198;-83
2023/07/21 10:23:34;;;;;;;1.70;1.50;;;;;;;24.21;43.87;100203.81;5025533;28;20221;-84
2023/07/21 10:26:04;;;;;;;2.40;1.33;;;;;;;24.25;43.18;100201.56;5037042;28;20226;-84
2023/07/21 10:28:43;;;;;;;1.50;1.40;;;;;;;24.31;43.37;100208.97;5031132;28;20210;-84
2023/07/21 10:31:36;;;;;;;1.27;1.17;;;;;;;24.34;43.79;100203.13;5030716;28;20202;-85
2023/07/21 10:34:10;;;;;;;1.40;1.30;;;;;;;24.49;44.02;100198.44;5030006;28;20206;-84
2023/07/21 10:36:42;;;;;;;1.83;1.42;;;;;;;24.62;43.18;100203.13;5031912;28;20209;-84
2023/07/21 10:39:12;;;;;;;1.50;1.40;;;;;;;24.72;42.35;100200.88;5031882;28;20705;-83
2023/07/21 10:41:39;;;;;;;1.73;1.30;;;;;;;24.76;41.47;100185.81;5027050;28;20206;-83
2023/07/21 10:44:07;;;;;;;1.55;1.45;;;;;;;24.79;42.01;100181.84;5038811;28;20325;-83
2023/07/21 10:46:39;;;;;;;1.20;1.10;;;;;;;24.81;41.99;100194.22;5024918;28;20287;-83
2023/07/21 10:49:06;;;;;;;1.80;1.70;;;;;;;24.82;42.43;100198.66;5036203;28;20614;-84
2023/07/21 10:54:14;;;;;;;1.77;1.67;;;;;;;24.69;41.81;100193.13;4984821;28;20211;-83
2023/07/21 10:56:44;;;;;;;1.70;1.60;;;;;;;24.55;42.15;100192.16;5028575;28;20225;-84
2023/07/21 10:59:11;;;;;;;3.00;1.80;;;;;;;24.49;42.22;100198.44;5030098;28;20217;-84
2023/07/21 11:01:41;;;;;;;1.50;1.40;;;;;;;24.44;42.59;100190.00;5031858;28;20216;-85
2023/07/21 11:04:08;;;;;;;3.03;1.20;;;;;;;24.47;42.90;100189.63;5028452;28;20652;-84
2023/07/21 11:06:39;;;;;;;1.40;1.30;;;;;;;24.48;42.91;100190.47;5023030;28;20233;-84
2023/07/21 11:09:06;;;;;;;2.92;1.27;;;;;;;24.52;43.10;100191.75;5030419;28;20570;-84
2023/07/21 11:11:32;;;;;;;1.48;1.33;;;;;;;24.50;42.58;100185.66;5028616;28;20213;-83
2023/07/21 11:13:59;;;;;;;1.58;1.40;;;;;;;24.51;43.93;100185.47;5033190;28;20883;-83
2023/07/21 11:16:25;;;;;;;2.28;1.20;;;;;;;24.52;43.43;100180.84;5027490;28;20205;-83
2023/07/21 11:18:53;;;;;;;1.25;1.20;;;;;;;24.54;43.63;100178.78;5029582;28;20213;-83
2023/07/21 11:21:20;;;;;;;1.40;1.30;;;;;;;24.54;43.00;100179.59;5022533;28;20586;-83
2023/07/21 11:23:46;;;;;;;2.33;1.20;;;;;;;24.56;43.41;100179.41;5029277;28;20229;-84
2023/07/21 11:26:13;;;;;;;1.65;1.30;;;;;;;24.63;43.21;100183.03;5028546;28;20244;-85
2023/07/21 11:28:40;;;;;;;1.67;1.58;;;;;;;24.66;42.61;100179.06;5030794;28;20216;-84
2023/07/21 11:31:12;;;;;;;1.88;1.30;;;;;;;24.65;42.32;100178.22;5028191;28;20231;-84
2023/07/21 11:33:40;;;;;;;1.40;1.10;;;;;;;24.66;42.57;100174.47;5026881;28;20780;-83